Time;durP1;ratioP1;P1;durP2;ratioP2;P2;SDS_P1;SDS_P2;PMS_P1;PMS_P2;Temp;Humidity;BMP_temperature;BMP_pressure;BME280_temperature;BME280_humidity;BME280_pressure;Samples;Min_cycle;Max_cycle;Signal;HPM_P1;HPM_P2
2023/05/13 00:01:45;;;;;;;6.20;4.93;;;;;;;;;;5007771;28;20655;-67
2023/05/13 00:04:10;;;;;;;6.70;4.32;;;;;;;;;;5010449;28;20430;-67
2023/05/13 00:06:35;;;;;;;6.00;4.82;;;;;;;;;;5008657;28;21484;-67
2023/05/13 00:09:00;;;;;;;5.53;4.32;;;;;;;;;;5013690;22;20226;-75
2023/05/13 00:11:26;;;;;;;7.10;4.22;;;;;;;;;;4993392;28;20196;-75
2023/05/13 00:13:51;;;;;;;7.50;4.85;;;;;;;;;;4977333;28;20204;-75
2023/05/13 00:16:16;;;;;;;5.95;4.35;;;;;;;;;;4996364;28;20616;-75
2023/05/13 00:18:42;;;;;;;5.40;4.70;;;;;;;;;;4993205;28;20200;-75
2023/05/13 00:21:07;;;;;;;5.10;4.05;;;;;;;;;;4990876;28;20184;-75
2023/05/13 00:23:32;;;;;;;6.03;4.35;;;;;;;;;;4995590;28;20180;-75
2023/05/13 00:25:58;;;;;;;4.65;4.13;;;;;;;;;;4977925;28;20629;-75
2023/05/13 00:28:23;;;;;;;6.90;4.55;;;;;;;;;;4983585;28;20744;-74
2023/05/13 00:30:49;;;;;;;6.25;4.00;;;;;;;;;;4986638;28;20677;-74
2023/05/13 00:33:14;;;;;;;5.25;4.60;;;;;;;;;;4986365;28;20592;-75
2023/05/13 00:35:39;;;;;;;5.97;4.15;;;;;;;;;;4991999;28;20206;-75
2023/05/13 00:38:05;;;;;;;6.05;4.00;;;;;;;;;;4996048;28;20222;-75
2023/05/13 00:40:32;;;;;;;5.35;4.40;;;;;;;;;;4988847;28;20183;-74
2023/05/13 00:42:57;;;;;;;6.57;3.95;;;;;;;;;;4990425;28;20274;-75
2023/05/13 00:45:22;;;;;;;6.15;4.43;;;;;;;;;;4988874;28;20267;-75
2023/05/13 00:47:48;;;;;;;6.85;4.25;;;;;;;;;;4983870;28;20180;-74
2023/05/13 00:50:14;;;;;;;5.07;4.40;;;;;;;;;;4984736;28;20187;-75
2023/05/13 00:52:40;;;;;;;7.18;4.72;;;;;;;;;;4988285;28;20540;-74
2023/05/13 00:55:05;;;;;;;7.05;4.72;;;;;;;;;;4989105;28;20230;-75
2023/05/13 00:57:31;;;;;;;6.05;4.15;;;;;;;;;;4990181;28;20184;-75
2023/05/13 00:59:56;;;;;;;4.75;3.92;;;;;;;;;;4989718;28;20178;-74
2023/05/13 01:02:45;;;;;;;4.43;3.65;;;;;;;;;;4993182;28;20296;-74
2023/05/13 01:05:25;;;;;;;5.10;3.97;;;;;;;;;;4983247;28;20310;-74
2023/05/13 01:07:58;;;;;;;4.80;4.00;;;;;;;;;;4988671;28;20595;-74
2023/05/13 01:10:52;;;;;;;4.80;4.15;;;;;;;;;;4987523;28;20237;-74
2023/05/13 01:13:22;;;;;;;5.63;4.05;;;;;;;;;;4991811;28;20582;-74
2023/05/13 01:15:51;;;;;;;5.05;3.67;;;;;;;;;;4986011;28;20543;-75
2023/05/13 01:18:23;;;;;;;6.00;4.55;;;;;;;;;;4991833;28;20238;-75
2023/05/13 01:20:49;;;;;;;4.85;3.65;;;;;;;;;;5003776;28;20238;-75
2023/05/13 01:23:14;;;;;;;4.45;3.83;;;;;;;;;;4989454;28;20188;-75
2023/05/13 01:25:39;;;;;;;7.07;3.85;;;;;;;;;;4993391;28;20206;-74
2023/05/13 01:28:05;;;;;;;4.78;4.25;;;;;;;;;;4993948;28;20207;-75
2023/05/13 01:30:30;;;;;;;4.90;3.80;;;;;;;;;;4990186;28;20191;-75
2023/05/13 01:32:56;;;;;;;5.78;3.92;;;;;;;;;;4976471;28;20210;-75
2023/05/13 01:35:22;;;;;;;4.28;3.72;;;;;;;;;;4991946;28;20555;-74
2023/05/13 01:37:47;;;;;;;6.30;4.45;;;;;;;;;;4986979;28;20604;-74
2023/05/13 01:40:13;;;;;;;5.45;4.18;;;;;;;;;;4989558;28;20214;-74
2023/05/13 01:42:38;;;;;;;4.53;4.05;;;;;;;;;;4989850;28;20617;-75
2023/05/13 01:45:04;;;;;;;5.70;4.00;;;;;;;;;;4986311;28;20238;-75
2023/05/13 01:47:30;;;;;;;5.07;4.18;;;;;;;;;;4990601;28;20187;-75
2023/05/13 01:49:55;;;;;;;12.68;4.40;;;;;;;;;;4995420;28;20644;-75
2023/05/13 01:52:20;;;;;;;6.00;4.60;;;;;;;;;;4988170;28;20201;-74
2023/05/13 01:54:45;;;;;;;7.63;4.70;;;;;;;;;;4988045;28;20203;-74
2023/05/13 01:57:10;;;;;;;4.75;3.90;;;;;;;;;;4992583;28;20679;-75
2023/05/13 01:59:36;;;;;;;6.55;4.20;;;;;;;;;;4981365;28;20211;-74
2023/05/13 02:02:02;;;;;;;9.60;4.53;;;;;;;;;;4983017;28;20192;-74
2023/05/13 02:04:28;;;;;;;5.97;4.38;;;;;;;;;;4986216;28;20274;-74
2023/05/13 02:06:53;;;;;;;6.35;5.13;;;;;;;;;;4995517;28;20263;-75
2023/05/13 02:09:18;;;;;;;5.32;4.57;;;;;;;;;;4991093;28;20218;-75
2023/05/13 02:11:44;;;;;;;5.57;4.57;;;;;;;;;;4990308;28;20238;-75
2023/05/13 02:14:09;;;;;;;6.82;4.30;;;;;;;;;;4990795;28;20711;-75
2023/05/13 02:16:35;;;;;;;10.25;4.85;;;;;;;;;;4990650;28;20183;-75
2023/05/13 02:19:00;;;;;;;8.48;5.05;;;;;;;;;;4996497;28;20195;-75
2023/05/13 02:21:25;;;;;;;9.88;5.03;;;;;;;;;;4990442;28;20493;-75
2023/05/13 02:23:51;;;;;;;7.97;4.82;;;;;;;;;;4991017;28;20234;-75
2023/05/13 02:26:16;;;;;;;6.80;5.53;;;;;;;;;;4993175;28;20191;-75
2023/05/13 02:28:41;;;;;;;5.30;4.80;;;;;;;;;;4992038;28;20195;-75
2023/05/13 02:31:06;;;;;;;6.88;5.47;;;;;;;;;;4993690;28;20191;-75
2023/05/13 02:33:32;;;;;;;8.13;5.18;;;;;;;;;;4991168;28;20230;-75
2023/05/13 02:35:57;;;;;;;10.00;5.90;;;;;;;;;;4995863;28;20641;-75
2023/05/13 02:38:22;;;;;;;7.65;5.72;;;;;;;;;;4976029;28;20239;-75
2023/05/13 02:40:47;;;;;;;6.60;5.85;;;;;;;;;;4989625;28;20266;-75
2023/05/13 02:43:12;;;;;;;8.73;6.43;;;;;;;;;;4988830;28;20214;-75
2023/05/13 02:45:39;;;;;;;8.23;6.57;;;;;;;;;;4987137;28;20184;-75
2023/05/13 02:48:04;;;;;;;10.27;6.65;;;;;;;;;;4997049;28;20203;-73
2023/05/13 02:50:30;;;;;;;7.90;6.55;;;;;;;;;;5007165;28;20192;-74
2023/05/13 02:52:55;;;;;;;12.82;6.63;;;;;;;;;;4997874;28;20673;-73
2023/05/13 02:55:20;;;;;;;8.15;7.03;;;;;;;;;;4991323;28;20191;-74
2023/05/13 02:57:45;;;;;;;9.07;7.47;;;;;;;;;;4992439;28;20267;-74
2023/05/13 03:00:11;;;;;;;10.43;7.88;;;;;;;;;;4989565;28;20184;-74
2023/05/13 03:02:36;;;;;;;8.98;7.00;;;;;;;;;;4992835;28;20211;-74
2023/05/13 03:05:01;;;;;;;8.88;7.30;;;;;;;;;;4989914;28;20195;-74
2023/05/13 03:07:26;;;;;;;8.90;6.68;;;;;;;;;;4990609;28;20208;-75
2023/05/13 03:09:52;;;;;;;10.82;7.90;;;;;;;;;;4993732;28;20235;-74
2023/05/13 03:12:18;;;;;;;10.65;8.23;;;;;;;;;;4994504;28;20254;-74
2023/05/13 03:14:45;;;;;;;8.95;7.45;;;;;;;;;;4990231;28;20215;-74
2023/05/13 03:17:10;;;;;;;9.27;8.00;;;;;;;;;;4983363;28;20184;-74
2023/05/13 03:19:36;;;;;;;14.43;8.25;;;;;;;;;;4983376;28;20281;-74
2023/05/13 03:22:01;;;;;;;10.73;8.75;;;;;;;;;;4988075;28;20179;-74
2023/05/13 03:24:26;;;;;;;10.55;7.85;;;;;;;;;;4987710;28;20187;-74
2023/05/13 03:26:52;;;;;;;9.95;7.95;;;;;;;;;;4990925;28;20180;-74
2023/05/13 03:29:17;;;;;;;10.32;8.82;;;;;;;;;;4993245;28;20696;-74
2023/05/13 03:31:42;;;;;;;11.90;9.18;;;;;;;;;;4990769;28;20578;-75
2023/05/13 03:34:07;;;;;;;10.88;8.75;;;;;;;;;;4993043;28;20215;-74
2023/05/13 03:36:33;;;;;;;12.65;9.20;;;;;;;;;;4998479;28;20183;-74
2023/05/13 03:38:58;;;;;;;12.18;10.13;;;;;;;;;;5000492;28;20191;-74
2023/05/13 03:41:23;;;;;;;10.98;9.02;;;;;;;;;;4993818;28;20194;-74
2023/05/13 03:43:48;;;;;;;11.98;10.02;;;;;;;;;;4994837;28;20187;-75
2023/05/13 03:46:13;;;;;;;13.15;10.48;;;;;;;;;;4991875;28;20210;-74
2023/05/13 03:48:39;;;;;;;15.00;10.65;;;;;;;;;;4997626;28;20207;-74
2023/05/13 03:51:04;;;;;;;13.88;10.05;;;;;;;;;;4994330;28;20600;-74
2023/05/13 03:53:29;;;;;;;13.95;10.02;;;;;;;;;;4989874;28;20207;-74
2023/05/13 03:55:54;;;;;;;13.95;10.05;;;;;;;;;;4984274;28;20192;-74
2023/05/13 03:58:21;;;;;;;16.95;10.60;;;;;;;;;;4998061;28;20206;-74
2023/05/13 04:00:46;;;;;;;14.63;10.15;;;;;;;;;;4996167;28;20656;-75
2023/05/13 04:03:12;;;;;;;14.65;11.20;;;;;;;;;;4990647;28;20184;-74
2023/05/13 04:05:37;;;;;;;13.87;10.40;;;;;;;;;;4992931;28;20711;-74
2023/05/13 04:08:02;;;;;;;14.17;10.60;;;;;;;;;;4994544;28;20211;-74
2023/05/13 04:10:28;;;;;;;14.70;11.10;;;;;;;;;;5002177;28;20823;-74
2023/05/13 04:12:53;;;;;;;14.05;11.68;;;;;;;;;;5006457;28;20238;-73
2023/05/13 04:15:18;;;;;;;15.25;11.82;;;;;;;;;;5012714;28;20183;-73
2023/05/13 04:17:43;;;;;;;19.13;12.13;;;;;;;;;;5014537;28;20238;-74
2023/05/13 04:20:09;;;;;;;13.77;11.37;;;;;;;;;;4992659;28;20209;-74
2023/05/13 04:22:34;;;;;;;15.60;12.67;;;;;;;;;;4991580;28;20238;-74
2023/05/13 04:24:59;;;;;;;17.15;11.20;;;;;;;;;;4991908;28;20168;-74
2023/05/13 04:27:25;;;;;;;14.25;11.30;;;;;;;;;;4996268;28;20546;-74
2023/05/13 04:29:50;;;;;;;14.83;11.50;;;;;;;;;;4995918;28;21406;-74
2023/05/13 04:32:20;;;;;;;17.00;11.65;;;;;;;;;;4992171;28;20211;-74
2023/05/13 04:34:45;;;;;;;16.33;11.52;;;;;;;;;;4994349;28;20215;-73
2023/05/13 04:37:10;;;;;;;12.73;10.60;;;;;;;;;;4998835;28;20232;-74
2023/05/13 04:39:36;;;;;;;16.15;11.52;;;;;;;;;;5005093;28;20203;-74
2023/05/13 04:42:01;;;;;;;14.18;10.80;;;;;;;;;;4995135;28;20211;-74
2023/05/13 04:44:26;;;;;;;16.13;11.30;;;;;;;;;;4988839;28;20670;-74
2023/05/13 04:46:51;;;;;;;14.35;11.10;;;;;;;;;;4996552;28;20282;-74
2023/05/13 04:49:16;;;;;;;16.10;10.60;;;;;;;;;;4991372;28;20207;-75
2023/05/13 04:51:41;;;;;;;14.40;10.50;;;;;;;;;;4996971;28;20184;-74
2023/05/13 04:54:07;;;;;;;14.27;10.05;;;;;;;;;;4990850;28;20583;-74
2023/05/13 04:56:32;;;;;;;15.45;9.63;;;;;;;;;;4992586;28;20619;-74
2023/05/13 04:58:57;;;;;;;12.30;9.38;;;;;;;;;;4995034;28;20246;-74
2023/05/13 05:01:23;;;;;;;16.00;10.18;;;;;;;;;;4988012;28;20563;-74
2023/05/13 05:03:48;;;;;;;12.82;9.57;;;;;;;;;;4983700;28;20230;-75
2023/05/13 05:06:13;;;;;;;14.25;10.23;;;;;;;;;;4990840;28;20222;-74
2023/05/13 05:08:38;;;;;;;14.05;10.27;;;;;;;;;;4993442;28;20215;-74
2023/05/13 05:11:04;;;;;;;13.20;10.38;;;;;;;;;;4991254;28;20190;-74
2023/05/13 05:13:29;;;;;;;15.10;9.45;;;;;;;;;;4992450;28;20589;-74
2023/05/13 05:15:54;;;;;;;14.27;10.90;;;;;;;;;;4991491;28;20227;-74
2023/05/13 05:18:20;;;;;;;17.85;10.55;;;;;;;;;;4992999;28;20720;-74
2023/05/13 05:20:45;;;;;;;13.90;10.27;;;;;;;;;;4991845;28;20179;-74
2023/05/13 05:23:10;;;;;;;11.52;10.02;;;;;;;;;;4992420;28;20175;-74
2023/05/13 05:25:35;;;;;;;14.10;10.13;;;;;;;;;;4991238;28;20277;-73
2023/05/13 05:28:03;;;;;;;11.52;8.95;;;;;;;;;;4991336;28;20203;-74
2023/05/13 05:30:29;;;;;;;10.27;9.23;;;;;;;;;;4999767;28;20601;-74
2023/05/13 05:32:55;;;;;;;15.15;10.27;;;;;;;;;;4987939;28;20277;-74
2023/05/13 05:35:20;;;;;;;10.77;9.00;;;;;;;;;;4991711;28;20282;-74
2023/05/13 05:37:45;;;;;;;10.82;9.15;;;;;;;;;;4990379;28;20171;-74
2023/05/13 05:40:10;;;;;;;12.90;9.45;;;;;;;;;;4991635;28;20176;-74
2023/05/13 05:42:36;;;;;;;9.38;8.35;;;;;;;;;;4991543;28;20532;-74
2023/05/13 05:45:02;;;;;;;11.90;9.10;;;;;;;;;;4988718;28;20257;-74
2023/05/13 05:47:27;;;;;;;11.13;8.82;;;;;;;;;;4991668;28;20241;-75
2023/05/13 05:49:52;;;;;;;8.77;7.88;;;;;;;;;;4992574;28;20203;-75
2023/05/13 05:52:17;;;;;;;12.70;8.32;;;;;;;;;;4988311;28;20650;-74
2023/05/13 05:54:43;;;;;;;13.30;8.02;;;;;;;;;;4986706;28;20302;-75
2023/05/13 05:57:08;;;;;;;10.18;8.05;;;;;;;;;;4986299;28;20183;-75
2023/05/13 05:59:33;;;;;;;11.55;7.75;;;;;;;;;;4989726;28;20196;-75
2023/05/13 06:01:58;;;;;;;10.18;7.43;;;;;;;;;;4980006;28;20692;-74
2023/05/13 06:04:23;;;;;;;9.60;7.88;;;;;;;;;;4988046;28;20187;-74
2023/05/13 06:06:49;;;;;;;13.10;7.93;;;;;;;;;;4980263;28;20561;-74
2023/05/13 06:09:14;;;;;;;11.27;7.70;;;;;;;;;;4996678;22;20228;-68
2023/05/13 06:11:39;;;;;;;10.35;7.53;;;;;;;;;;4984899;28;20688;-68
2023/05/13 06:14:05;;;;;;;10.38;8.32;;;;;;;;;;4980673;28;20257;-68
2023/05/13 06:16:30;;;;;;;7.80;6.43;;;;;;;;;;4985210;28;20214;-68
2023/05/13 06:18:55;;;;;;;13.55;7.40;;;;;;;;;;4994575;28;20217;-69
2023/05/13 06:21:20;;;;;;;7.95;6.50;;;;;;;;;;5009367;28;20704;-69
2023/05/13 06:23:45;;;;;;;7.60;6.90;;;;;;;;;;5010733;28;20180;-69
2023/05/13 06:26:11;;;;;;;9.10;6.65;;;;;;;;;;5010111;28;20187;-68
2023/05/13 06:28:36;;;;;;;9.10;6.85;;;;;;;;;;5005849;28;20222;-68
2023/05/13 06:31:01;;;;;;;7.07;6.30;;;;;;;;;;5017334;28;20652;-68
2023/05/13 06:33:26;;;;;;;9.15;6.53;;;;;;;;;;5011428;28;20242;-68
2023/05/13 06:35:52;;;;;;;9.77;6.20;;;;;;;;;;5003223;28;20392;-68
2023/05/13 06:38:17;;;;;;;7.88;6.05;;;;;;;;;;5007864;28;20281;-68
2023/05/13 06:40:43;;;;;;;8.98;6.95;;;;;;;;;;5011837;28;21580;-69
2023/05/13 06:43:08;;;;;;;6.40;5.47;;;;;;;;;;5010621;28;20293;-68
2023/05/13 06:45:33;;;;;;;8.43;6.00;;;;;;;;;;5005703;28;20735;-68
2023/05/13 06:47:58;;;;;;;9.40;5.55;;;;;;;;;;5010285;28;20196;-68
2023/05/13 06:50:24;;;;;;;8.02;6.15;;;;;;;;;;4997610;28;20241;-68
2023/05/13 06:52:49;;;;;;;10.50;5.88;;;;;;;;;;5007530;28;20186;-69
2023/05/13 06:55:15;;;;;;;10.18;5.90;;;;;;;;;;5009749;28;20175;-68
2023/05/13 06:57:44;;;;;;;8.73;5.93;;;;;;;;;;5004069;28;20175;-68
2023/05/13 07:00:09;;;;;;;7.00;5.53;;;;;;;;;;5004867;28;20186;-69
2023/05/13 07:02:34;;;;;;;7.90;5.97;;;;;;;;;;5009283;28;20265;-68
2023/05/13 07:04:59;;;;;;;7.93;6.03;;;;;;;;;;5010033;28;20598;-68
2023/05/13 07:07:25;;;;;;;5.55;4.97;;;;;;;;;;5008776;28;20187;-68
2023/05/13 07:09:50;;;;;;;8.90;5.43;;;;;;;;;;5010160;28;20215;-68
2023/05/13 07:12:15;;;;;;;10.95;5.70;;;;;;;;;;5001709;28;20221;-68
2023/05/13 07:14:42;;;;;;;7.85;5.45;;;;;;;;;;5006385;28;20210;-68
2023/05/13 07:17:07;;;;;;;6.63;5.50;;;;;;;;;;5010906;28;20171;-68
2023/05/13 07:19:33;;;;;;;8.23;5.13;;;;;;;;;;5009911;28;20199;-68
2023/05/13 07:21:58;;;;;;;8.90;5.78;;;;;;;;;;5013005;28;20194;-68
2023/05/13 07:24:23;;;;;;;11.68;5.80;;;;;;;;;;5005442;28;20266;-68
2023/05/13 07:26:48;;;;;;;8.00;5.32;;;;;;;;;;5006057;28;20183;-68
2023/05/13 07:29:13;;;;;;;8.80;5.30;;;;;;;;;;5005135;28;20611;-69
2023/05/13 07:31:39;;;;;;;9.38;6.05;;;;;;;;;;5017206;28;20205;-69
2023/05/13 07:34:04;;;;;;;9.52;5.60;;;;;;;;;;5013418;28;20207;-69
2023/05/13 07:36:30;;;;;;;8.27;5.35;;;;;;;;;;5012178;28;20261;-68
2023/05/13 07:38:55;;;;;;;5.90;5.18;;;;;;;;;;5009485;28;20199;-67
2023/05/13 07:41:21;;;;;;;7.88;5.30;;;;;;;;;;5010004;28;20184;-68
2023/05/13 07:43:46;;;;;;;6.38;4.95;;;;;;;;;;5012211;28;20701;-68
2023/05/13 07:46:11;;;;;;;7.90;4.80;;;;;;;;;;5004688;28;20187;-68
2023/05/13 07:48:36;;;;;;;5.28;4.43;;;;;;;;;;5012248;28;20581;-68
2023/05/13 07:51:02;;;;;;;6.05;5.45;;;;;;;;;;5008502;28;20645;-67
2023/05/13 07:53:27;;;;;;;7.50;4.65;;;;;;;;;;5004817;28;20211;-67
2023/05/13 07:55:52;;;;;;;11.90;5.18;;;;;;;;;;5005085;28;20171;-67
2023/05/13 07:58:19;;;;;;;5.87;4.73;;;;;;;;;;5007692;28;20664;-68
2023/05/13 08:00:44;;;;;;;5.78;4.93;;;;;;;;;;5006731;28;20439;-68
2023/05/13 08:03:09;;;;;;;9.80;4.65;;;;;;;;;;5009972;28;20175;-68
2023/05/13 08:05:34;;;;;;;11.07;5.60;;;;;;;;;;5007277;28;20604;-68
2023/05/13 08:08:00;;;;;;;6.97;5.30;;;;;;;;;;5010460;28;20655;-68
2023/05/13 08:10:25;;;;;;;6.00;4.75;;;;;;;;;;5008878;28;20444;-68
2023/05/13 08:12:56;;;;;;;5.00;4.50;;;;;;;;;;5008190;28;20186;-68
2023/05/13 08:15:21;;;;;;;6.43;4.57;;;;;;;;;;5005001;28;20183;-68
2023/05/13 08:17:46;;;;;;;6.80;4.97;;;;;;;;;;5012843;28;20175;-68
2023/05/13 08:20:13;;;;;;;6.72;4.45;;;;;;;;;;5008717;28;20676;-68
2023/05/13 08:22:39;;;;;;;4.47;4.07;;;;;;;;;;5012192;28;20167;-68
2023/05/13 08:25:04;;;;;;;5.30;4.10;;;;;;;;;;5008590;28;20187;-68
2023/05/13 08:27:29;;;;;;;4.88;4.38;;;;;;;;;;5005220;28;20952;-68
2023/05/13 08:29:54;;;;;;;7.95;4.35;;;;;;;;;;5004240;28;20246;-68
2023/05/13 08:32:20;;;;;;;6.60;3.97;;;;;;;;;;5006622;28;20568;-68
2023/05/13 08:34:45;;;;;;;4.75;4.03;;;;;;;;;;5007757;28;20455;-68
2023/05/13 08:37:10;;;;;;;5.20;3.73;;;;;;;;;;5007312;28;20171;-68
2023/05/13 08:39:35;;;;;;;5.03;4.00;;;;;;;;;;5006929;28;20455;-68
2023/05/13 08:42:02;;;;;;;6.70;4.10;;;;;;;;;;5007627;28;20879;-68
2023/05/13 08:44:28;;;;;;;7.13;4.05;;;;;;;;;;5006598;28;20424;-68
2023/05/13 08:46:59;;;;;;;7.28;3.80;;;;;;;;;;5008051;28;20663;-68
2023/05/13 08:49:24;;;;;;;6.75;4.53;;;;;;;;;;5006582;28;20238;-68
2023/05/13 08:51:49;;;;;;;5.72;4.18;;;;;;;;;;5007346;28;20242;-68
2023/05/13 08:54:16;;;;;;;5.45;4.22;;;;;;;;;;5003674;28;20281;-68
2023/05/13 08:56:41;;;;;;;6.18;3.88;;;;;;;;;;5007895;28;20171;-68
2023/05/13 08:59:06;;;;;;;6.82;4.13;;;;;;;;;;5007027;28;20286;-68
2023/05/13 09:01:32;;;;;;;5.53;4.30;;;;;;;;;;5010804;28;20203;-68
2023/05/13 09:03:59;;;;;;;6.20;4.03;;;;;;;;;;4999716;28;20172;-68
2023/05/13 09:06:24;;;;;;;6.22;4.25;;;;;;;;;;5004671;28;20193;-68
2023/05/13 09:08:50;;;;;;;4.57;4.07;;;;;;;;;;5010084;28;21077;-68
2023/05/13 09:11:15;;;;;;;5.85;3.95;;;;;;;;;;5007345;28;20189;-68
2023/05/13 09:13:41;;;;;;;4.43;3.97;;;;;;;;;;5005293;28;20249;-68
2023/05/13 09:16:07;;;;;;;6.13;4.20;;;;;;;;;;5005682;28;20322;-68
2023/05/13 09:18:32;;;;;;;6.00;3.97;;;;;;;;;;5009028;28;20684;-68
2023/05/13 09:20:57;;;;;;;6.07;4.18;;;;;;;;;;5009404;28;20203;-68
2023/05/13 09:23:23;;;;;;;7.97;4.28;;;;;;;;;;5008169;28;20206;-68
2023/05/13 09:25:48;;;;;;;5.07;3.60;;;;;;;;;;5006974;28;20190;-68
2023/05/13 09:28:14;;;;;;;5.43;4.47;;;;;;;;;;5005451;28;20516;-68
2023/05/13 09:30:40;;;;;;;4.78;4.28;;;;;;;;;;5011110;28;20274;-68
2023/05/13 09:33:09;;;;;;;4.88;4.13;;;;;;;;;;5000795;28;20186;-68
2023/05/13 09:35:36;;;;;;;4.45;4.03;;;;;;;;;;5009692;28;20196;-68
2023/05/13 09:38:10;;;;;;;7.75;3.72;;;;;;;;;;5009168;28;20198;-68
2023/05/13 09:40:36;;;;;;;5.90;4.18;;;;;;;;;;5011128;28;20209;-68
2023/05/13 09:43:02;;;;;;;9.55;4.50;;;;;;;;;;5000324;28;20183;-68
2023/05/13 09:45:27;;;;;;;9.15;4.13;;;;;;;;;;5007730;28;20174;-68
2023/05/13 09:47:53;;;;;;;7.00;4.35;;;;;;;;;;5010858;28;20175;-68
2023/05/13 09:50:18;;;;;;;6.70;4.18;;;;;;;;;;5011817;28;20282;-68
2023/05/13 09:52:44;;;;;;;5.82;3.95;;;;;;;;;;5001236;28;20270;-68
2023/05/13 09:55:09;;;;;;;5.45;4.55;;;;;;;;;;5000923;28;20229;-68
2023/05/13 09:57:34;;;;;;;5.57;4.28;;;;;;;;;;5008860;28;20604;-68
2023/05/13 10:00:00;;;;;;;6.35;4.68;;;;;;;;;;5005101;28;20195;-68
2023/05/13 10:02:26;;;;;;;8.77;4.60;;;;;;;;;;5000686;28;20727;-68
2023/05/13 10:04:52;;;;;;;5.22;3.92;;;;;;;;;;5001695;28;20206;-68
2023/05/13 10:07:23;;;;;;;4.55;4.15;;;;;;;;;;5002277;28;20183;-68
2023/05/13 10:09:49;;;;;;;5.70;4.35;;;;;;;;;;5006912;28;20603;-68
2023/05/13 10:12:15;;;;;;;5.90;4.68;;;;;;;;;;5007541;28;20182;-69
2023/05/13 10:14:40;;;;;;;7.75;5.47;;;;;;;;;;5002506;28;20213;-68
2023/05/13 10:17:06;;;;;;;6.80;4.80;;;;;;;;;;4999667;28;20176;-68
2023/05/13 10:19:32;;;;;;;7.53;4.53;;;;;;;;;;5004809;28;20286;-68
2023/05/13 10:21:58;;;;;;;5.30;4.70;;;;;;;;;;5007663;28;20271;-68
2023/05/13 10:24:23;;;;;;;7.90;4.50;;;;;;;;;;5005016;28;20237;-68
2023/05/13 10:26:51;;;;;;;6.75;4.35;;;;;;;;;;5001678;28;20175;-68
2023/05/13 10:29:16;;;;;;;9.02;4.65;;;;;;;;;;4999463;28;20201;-68
2023/05/13 10:31:43;;;;;;;7.25;4.95;;;;;;;;;;5005369;28;20187;-68
2023/05/13 10:34:09;;;;;;;5.43;4.80;;;;;;;;;;4999413;28;20210;-68
2023/05/13 10:36:53;;;;;;;8.80;4.63;;;;;;;;;;5006768;28;20175;-68
2023/05/13 10:39:24;;;;;;;7.68;4.88;;;;;;;;;;5001126;28;20201;-69
2023/05/13 10:42:08;;;;;;;5.75;4.60;;;;;;;;;;5009332;28;20265;-69
2023/05/13 10:44:34;;;;;;;6.90;4.80;;;;;;;;;;5004793;28;21880;-68
2023/05/13 10:47:00;;;;;;;5.50;4.55;;;;;;;;;;5011222;28;20551;-68
2023/05/13 10:49:31;;;;;;;5.30;4.50;;;;;;;;;;4999011;28;20281;-69
2023/05/13 10:52:02;;;;;;;10.45;4.82;;;;;;;;;;5004228;28;20182;-68
2023/05/13 10:54:35;;;;;;;5.85;5.00;;;;;;;;;;4999570;28;20233;-68
2023/05/13 10:57:01;;;;;;;5.35;4.85;;;;;;;;;;5009356;28;20175;-68
2023/05/13 10:59:29;;;;;;;6.93;4.68;;;;;;;;;;5007718;28;20278;-68
2023/05/13 11:01:54;;;;;;;5.32;4.60;;;;;;;;;;5007379;28;20172;-68
2023/05/13 11:04:20;;;;;;;4.97;4.38;;;;;;;;;;5001047;28;20194;-68
2023/05/13 11:06:46;;;;;;;7.72;4.60;;;;;;;;;;5009439;28;20209;-68
2023/05/13 11:09:13;;;;;;;9.55;4.22;;;;;;;;;;5009016;28;20245;-68
2023/05/13 11:11:38;;;;;;;6.93;4.57;;;;;;;;;;5008940;28;20657;-68
2023/05/13 11:14:19;;;;;;;4.43;4.03;;;;;;;;;;5007024;28;20860;-68
2023/05/13 11:17:05;;;;;;;5.80;5.15;;;;;;;;;;5012478;28;20566;-68
2023/05/13 11:19:31;;;;;;;6.10;3.60;;;;;;;;;;5005084;28;20202;-69
2023/05/13 11:22:02;;;;;;;7.72;4.35;;;;;;;;;;5002524;28;20554;-70
2023/05/13 11:24:28;;;;;;;5.65;4.05;;;;;;;;;;5010715;28;20293;-68
2023/05/13 11:26:55;;;;;;;6.53;4.10;;;;;;;;;;5010820;28;20187;-68
2023/05/13 11:29:28;;;;;;;6.30;4.72;;;;;;;;;;5008650;28;20472;-68
2023/05/13 11:31:56;;;;;;;6.00;4.25;;;;;;;;;;5009019;28;20179;-69
2023/05/13 11:34:21;;;;;;;4.03;3.50;;;;;;;;;;5009232;28;20573;-67
2023/05/13 11:36:51;;;;;;;6.00;4.55;;;;;;;;;;5008317;28;20175;-68
2023/05/13 11:39:17;;;;;;;4.65;4.25;;;;;;;;;;4991960;28;20732;-68
2023/05/13 11:41:47;;;;;;;5.20;3.95;;;;;;;;;;4990098;28;20187;-68
2023/05/13 11:44:13;;;;;;;6.55;4.60;;;;;;;;;;4989458;28;20175;-68
2023/05/13 11:46:47;;;;;;;8.75;4.57;;;;;;;;;;4994595;28;20261;-68
2023/05/13 11:49:27;;;;;;;7.95;4.72;;;;;;;;;;4990137;28;20246;-68
2023/05/13 11:51:53;;;;;;;9.70;4.88;;;;;;;;;;4989818;28;20187;-68
2023/05/13 11:54:18;;;;;;;5.05;4.50;;;;;;;;;;4990307;28;20217;-68
2023/05/13 11:56:43;;;;;;;6.77;4.43;;;;;;;;;;4987950;28;20358;-68
2023/05/13 11:59:13;;;;;;;5.10;4.33;;;;;;;;;;4987007;28;20198;-68
2023/05/13 12:01:38;;;;;;;4.93;4.43;;;;;;;;;;4987222;28;20527;-69
2023/05/13 12:04:04;;;;;;;5.65;4.95;;;;;;;;;;4988147;28;20789;-68
2023/05/13 12:06:30;;;;;;;7.00;4.88;;;;;;;;;;4988587;28;20274;-68
2023/05/13 12:08:55;;;;;;;4.82;4.22;;;;;;;;;;4986198;28;20561;-69
2023/05/13 12:11:21;;;;;;;8.50;4.75;;;;;;;;;;4988783;28;20194;-68
2023/05/13 12:13:46;;;;;;;5.22;4.78;;;;;;;;;;4985357;28;20207;-69
2023/05/13 12:16:11;;;;;;;5.82;4.35;;;;;;;;;;4984721;28;20590;-68
2023/05/13 12:18:37;;;;;;;5.80;4.10;;;;;;;;;;4987447;28;20207;-68
2023/05/13 12:21:12;;;;;;;10.17;5.33;;;;;;;;;;4988806;28;20632;-68
2023/05/13 12:23:38;;;;;;;5.38;4.10;;;;;;;;;;4986969;28;20907;-69
2023/05/13 12:26:06;;;;;;;6.22;4.20;;;;;;;;;;4988127;28;21706;-69
2023/05/13 12:28:31;;;;;;;4.50;3.88;;;;;;;;;;4988578;28;20275;-69
2023/05/13 12:30:57;;;;;;;6.13;4.93;;;;;;;;;;4987306;28;20665;-68
2023/05/13 12:33:24;;;;;;;4.82;4.32;;;;;;;;;;4984813;28;20471;-69
2023/05/13 12:35:50;;;;;;;6.68;4.10;;;;;;;;;;4988469;28;20193;-68
2023/05/13 12:38:17;;;;;;;5.95;3.80;;;;;;;;;;4989672;28;20230;-69
2023/05/13 12:40:43;;;;;;;6.97;4.47;;;;;;;;;;4983962;28;20274;-69
2023/05/13 12:43:09;;;;;;;6.20;4.40;;;;;;;;;;4977939;28;20175;-68
2023/05/13 12:45:36;;;;;;;4.20;3.60;;;;;;;;;;4993074;28;20237;-69
2023/05/13 12:48:01;;;;;;;4.55;3.92;;;;;;;;;;4987354;28;20182;-69
2023/05/13 12:50:26;;;;;;;5.68;3.83;;;;;;;;;;4986904;28;21647;-69
2023/05/13 12:52:52;;;;;;;4.32;3.90;;;;;;;;;;4985993;28;20241;-69
2023/05/13 12:55:17;;;;;;;5.10;4.50;;;;;;;;;;4985529;28;20256;-69
2023/05/13 12:57:43;;;;;;;5.73;4.20;;;;;;;;;;4986993;28;20186;-69
2023/05/13 13:00:09;;;;;;;5.22;4.10;;;;;;;;;;4988688;28;20937;-69
2023/05/13 13:02:34;;;;;;;6.78;4.07;;;;;;;;;;4984900;28;20183;-68
2023/05/13 13:04:59;;;;;;;7.00;4.20;;;;;;;;;;4986221;28;20663;-68
2023/05/13 13:07:24;;;;;;;6.33;4.07;;;;;;;;;;4988305;28;20703;-68
2023/05/13 13:09:50;;;;;;;6.83;4.50;;;;;;;;;;4986364;28;20230;-68
2023/05/13 13:12:15;;;;;;;10.27;4.07;;;;;;;;;;4982162;28;20187;-68
2023/05/13 13:14:40;;;;;;;5.70;3.47;;;;;;;;;;4987209;28;21175;-68
2023/05/13 13:17:05;;;;;;;6.50;4.20;;;;;;;;;;4987134;28;20312;-67
2023/05/13 13:19:31;;;;;;;6.60;4.18;;;;;;;;;;4986376;28;20206;-68
2023/05/13 13:21:56;;;;;;;4.27;3.00;;;;;;;;;;4989282;28;20171;-67
2023/05/13 13:24:21;;;;;;;5.07;3.47;;;;;;;;;;4989440;28;20435;-67
2023/05/13 13:26:48;;;;;;;6.43;3.63;;;;;;;;;;4985726;28;20191;-68
2023/05/13 13:29:14;;;;;;;6.78;3.70;;;;;;;;;;4987149;28;20447;-71
2023/05/13 13:31:39;;;;;;;5.35;3.83;;;;;;;;;;4989751;28;20677;-67
2023/05/13 13:34:04;;;;;;;5.47;3.70;;;;;;;;;;4986895;28;20282;-68
2023/05/13 13:36:31;;;;;;;5.55;3.75;;;;;;;;;;4985785;28;20510;-67
2023/05/13 13:38:56;;;;;;;6.05;4.15;;;;;;;;;;5000400;28;20198;-68
2023/05/13 13:41:24;;;;;;;4.60;3.83;;;;;;;;;;5006550;28;20188;-68
2023/05/13 13:43:49;;;;;;;4.50;4.05;;;;;;;;;;5008364;28;20424;-68
2023/05/13 13:46:14;;;;;;;4.65;4.22;;;;;;;;;;5004305;28;20179;-68
2023/05/13 13:48:40;;;;;;;9.43;4.30;;;;;;;;;;5007764;28;20242;-68
2023/05/13 13:51:05;;;;;;;4.40;3.72;;;;;;;;;;5006772;28;20178;-68
2023/05/13 13:53:30;;;;;;;6.20;3.70;;;;;;;;;;5007979;28;20241;-68
2023/05/13 13:55:55;;;;;;;5.25;3.90;;;;;;;;;;5011973;28;20520;-68
2023/05/13 13:58:21;;;;;;;5.13;3.47;;;;;;;;;;4995212;28;20195;-68
2023/05/13 14:00:46;;;;;;;4.10;3.35;;;;;;;;;;5004971;28;20425;-68
2023/05/13 14:03:12;;;;;;;4.13;3.73;;;;;;;;;;5006475;28;20307;-68
2023/05/13 14:05:37;;;;;;;4.95;3.50;;;;;;;;;;5013467;28;20420;-67
2023/05/13 14:08:02;;;;;;;6.05;3.63;;;;;;;;;;5011537;28;20175;-67
2023/05/13 14:10:27;;;;;;;14.13;4.10;;;;;;;;;;5009850;28;20277;-67
2023/05/13 14:12:52;;;;;;;5.30;3.97;;;;;;;;;;5010898;28;20514;-67
2023/05/13 14:15:18;;;;;;;6.40;3.83;;;;;;;;;;5001293;28;20505;-67
2023/05/13 14:17:43;;;;;;;9.07;4.77;;;;;;;;;;5003617;28;20560;-68
2023/05/13 14:20:09;;;;;;;5.75;4.20;;;;;;;;;;5007696;28;20207;-68
2023/05/13 14:22:34;;;;;;;7.50;4.57;;;;;;;;;;5002740;28;20641;-69
2023/05/13 14:25:00;;;;;;;5.82;4.22;;;;;;;;;;5006176;28;20182;-69
2023/05/13 14:27:25;;;;;;;7.03;4.03;;;;;;;;;;5017738;28;20180;-69
2023/05/13 14:29:50;;;;;;;6.47;4.60;;;;;;;;;;5003400;28;20237;-67
2023/05/13 14:32:16;;;;;;;4.72;3.83;;;;;;;;;;5005859;28;20456;-67